Time;durP1;ratioP1;P1;durP2;ratioP2;P2;SDS_P1;SDS_P2;PMS_P1;PMS_P2;Temp;Humidity;BMP_temperature;BMP_pressure;BME280_temperature;BME280_humidity;BME280_pressure;Samples;Min_cycle;Max_cycle;Signal;HPM_P1;HPM_P2
2024/03/16 00:00:57;;;;;;;7.50;2.97;;;10.60;99.90;;;11.43;100.00;97719.00;4978577;28;21063;-80
2024/03/16 00:03:26;;;;;;;4.40;2.50;;;10.60;99.90;;;11.41;100.00;97720.22;4982253;28;20466;-80
2024/03/16 00:05:56;;;;;;;4.37;2.87;;;10.50;99.90;;;11.39;100.00;97717.78;4997457;28;20980;-80
2024/03/16 00:08:24;;;;;;;6.70;3.40;;;10.60;99.90;;;11.41;100.00;97717.63;5014312;28;20451;-80
2024/03/16 00:10:53;;;;;;;6.67;2.60;;;10.60;99.90;;;11.41;100.00;97715.81;5003144;28;20981;-80
2024/03/16 00:13:22;;;;;;;3.80;2.73;;;10.60;99.90;;;11.41;100.00;97704.53;4992995;28;21011;-80
2024/03/16 00:15:50;;;;;;;5.33;3.10;;;10.60;99.90;;;11.39;100.00;97709.94;4999874;28;20529;-80
2024/03/16 00:18:19;;;;;;;3.47;2.80;;;10.60;99.90;;;11.41;100.00;97705.34;5009006;28;20470;-80
2024/03/16 00:20:47;;;;;;;4.23;2.80;;;10.60;99.90;;;11.36;100.00;97706.91;5003813;28;20541;-80
2024/03/16 00:23:16;;;;;;;4.70;2.20;;;10.60;99.90;;;11.33;100.00;97702.09;4996527;28;20463;-80
2024/03/16 00:25:45;;;;;;;4.73;2.70;;;10.70;99.90;;;11.35;100.00;97705.31;5030270;28;20478;-80
2024/03/16 00:28:13;;;;;;;5.10;2.20;;;10.70;99.90;;;11.35;100.00;97711.34;4999296;28;20459;-79
2024/03/16 00:30:43;;;;;;;3.30;2.00;;;10.70;99.90;;;11.34;100.00;97709.75;4998669;28;20475;-80
2024/03/16 00:33:12;;;;;;;9.70;2.37;;;10.70;99.90;;;11.35;100.00;97706.09;4999315;28;20566;-80
2024/03/16 00:35:41;;;;;;;2.67;2.30;;;10.60;99.90;;;11.32;100.00;97705.69;4997752;28;20586;-80
2024/03/16 00:38:11;;;;;;;5.23;2.40;;;10.60;99.90;;;11.26;100.00;97706.50;4971765;28;20471;-80
2024/03/16 00:40:40;;;;;;;7.80;3.17;;;10.50;99.90;;;11.27;100.00;97702.88;4998625;28;20532;-80
2024/03/16 00:43:08;;;;;;;5.73;2.57;;;10.50;99.90;;;11.24;100.00;97698.88;5010807;28;20486;-80
2024/03/16 00:45:37;;;;;;;2.77;2.00;;;10.50;99.90;;;11.24;100.00;97703.28;5011832;28;20870;-80
2024/03/16 00:48:07;;;;;;;4.10;2.07;;;10.50;99.90;;;11.22;100.00;97711.34;4991552;28;20521;-80
2024/03/16 00:50:36;;;;;;;7.50;2.50;;;10.50;99.90;;;11.16;100.00;97706.09;5010932;28;20545;-79
2024/03/16 00:53:04;;;;;;;3.20;1.83;;;10.50;99.90;;;11.16;100.00;97716.56;4999524;28;20521;-80
2024/03/16 00:55:34;;;;;;;5.80;1.97;;;10.50;99.90;;;11.15;100.00;97714.94;5008429;28;20549;-80
2024/03/16 00:58:04;;;;;;;7.43;2.60;;;10.50;99.90;;;11.12;100.00;97716.16;4995451;28;20949;-80
2024/03/16 01:00:33;;;;;;;7.00;2.23;;;10.50;99.90;;;11.14;100.00;97718.59;4999184;28;21016;-80
2024/03/16 01:03:02;;;;;;;6.73;2.27;;;10.40;99.90;;;11.12;100.00;97721.38;4993887;28;20970;-79
2024/03/16 01:05:30;;;;;;;3.70;1.83;;;10.50;99.90;;;11.06;100.00;97736.06;5010458;28;20466;-80
2024/03/16 01:07:59;;;;;;;4.00;2.00;;;10.40;99.90;;;11.00;100.00;97722.97;5012187;28;20556;-79
2024/03/16 01:10:27;;;;;;;3.20;2.00;;;10.40;99.90;;;11.01;100.00;97724.56;4996857;28;20466;-80
2024/03/16 01:12:56;;;;;;;3.60;1.73;;;10.40;99.90;;;11.01;100.00;97732.41;4996839;28;20837;-80
2024/03/16 01:15:25;;;;;;;4.13;1.93;;;10.30;99.90;;;11.00;100.00;97738.69;5014159;28;21075;-80
2024/03/16 01:17:53;;;;;;;3.00;1.97;;;10.30;99.90;;;10.97;100.00;97739.03;4992911;28;20710;-80
2024/03/16 01:20:22;;;;;;;1.63;1.47;;;10.30;99.90;;;10.93;100.00;97740.47;4978024;28;20462;-79
2024/03/16 01:22:51;;;;;;;2.27;1.40;;;10.30;99.90;;;10.86;100.00;97737.03;4992677;28;20904;-80
2024/03/16 01:25:19;;;;;;;5.20;1.60;;;10.30;99.90;;;10.82;100.00;97733.19;4990959;28;20503;-80
2024/03/16 01:27:48;;;;;;;2.90;1.43;;;10.30;99.90;;;10.83;100.00;97732.19;4992925;28;20473;-80
2024/03/16 01:30:16;;;;;;;4.40;1.90;;;10.20;99.90;;;10.81;100.00;97739.41;4994751;28;20464;-80
2024/03/16 01:32:45;;;;;;;1.77;1.50;;;10.20;99.90;;;10.77;100.00;97736.38;4998834;28;20467;-79
2024/03/16 01:35:13;;;;;;;2.77;1.80;;;10.10;99.90;;;10.76;100.00;97744.44;4993175;28;20766;-80
2024/03/16 01:37:42;;;;;;;8.63;1.53;;;10.00;99.90;;;10.80;100.00;97740.41;5009338;28;20461;-80
2024/03/16 01:40:10;;;;;;;3.80;1.43;;;10.00;99.90;;;10.78;100.00;97734.56;4994269;28;20480;-80
2024/03/16 01:42:39;;;;;;;2.43;1.60;;;10.00;99.90;;;10.79;100.00;97733.56;4996143;28;20489;-79
2024/03/16 01:45:08;;;;;;;1.80;1.30;;;10.10;99.90;;;10.73;100.00;97736.94;4981559;28;20474;-80
2024/03/16 01:47:38;;;;;;;2.07;1.23;;;10.00;99.90;;;10.72;100.00;97735.34;4996349;28;20965;-80
2024/03/16 01:50:08;;;;;;;2.53;1.60;;;10.00;99.90;;;10.71;100.00;97744.19;4979598;28;20551;-80
2024/03/16 01:52:37;;;;;;;11.47;1.37;;;10.00;99.90;;;10.68;100.00;97739.34;4992258;28;20461;-80
2024/03/16 01:55:06;;;;;;;6.27;1.60;;;10.10;99.90;;;10.63;100.00;97749.59;4983913;28;20993;-79
2024/03/16 01:57:35;;;;;;;3.73;1.47;;;10.10;99.90;;;10.59;100.00;97749.97;5011039;28;21035;-80
2024/03/16 02:00:05;;;;;;;1.83;1.20;;;9.90;99.90;;;10.51;100.00;97744.94;4982811;28;20476;-79
2024/03/16 02:02:33;;;;;;;4.73;1.43;;;9.90;99.90;;;10.56;100.00;97745.13;4994967;28;20952;-80
2024/03/16 02:05:03;;;;;;;4.50;1.80;;;9.90;99.90;;;10.56;100.00;97739.91;5012639;28;20468;-80
2024/03/16 02:07:32;;;;;;;3.20;1.40;;;9.80;99.90;;;10.52;100.00;97746.53;5009820;28;20536;-80
2024/03/16 02:10:00;;;;;;;6.60;1.57;;;9.70;99.90;;;10.48;100.00;97749.72;5011851;28;20540;-79
2024/03/16 02:12:29;;;;;;;4.80;1.40;;;9.60;99.90;;;10.48;100.00;97739.28;4999888;28;20469;-79
2024/03/16 02:14:58;;;;;;;2.73;1.30;;;9.70;99.90;;;10.43;100.00;97739.84;5013094;28;20531;-79
2024/03/16 02:17:27;;;;;;;3.47;1.50;;;9.70;99.90;;;10.38;100.00;97737.00;5006924;28;20823;-80
2024/03/16 02:19:56;;;;;;;3.53;1.17;;;9.70;99.90;;;10.36;100.00;97741.63;4999697;28;20994;-80
2024/03/16 02:22:24;;;;;;;1.90;1.20;;;9.60;99.90;;;10.35;100.00;97749.66;4999694;28;20469;-80
2024/03/16 02:24:53;;;;;;;4.07;1.87;;;9.60;99.90;;;10.32;100.00;97745.63;4985459;28;20841;-80
2024/03/16 02:27:22;;;;;;;4.03;1.40;;;9.50;99.90;;;10.33;100.00;97751.66;4997758;28;20476;-80
2024/03/16 02:29:50;;;;;;;1.67;1.20;;;9.50;99.90;;;10.34;100.00;97748.84;4986478;28;20880;-80
2024/03/16 02:32:19;;;;;;;1.80;1.30;;;9.50;99.90;;;10.35;100.00;97750.44;4998757;28;20465;-79
2024/03/16 02:34:47;;;;;;;2.17;1.20;;;9.50;99.90;;;10.39;100.00;97751.69;4986052;28;20659;-79
2024/03/16 02:37:16;;;;;;;3.23;1.40;;;9.60;99.90;;;10.38;100.00;97755.28;4997142;28;20498;-80
2024/03/16 02:39:44;;;;;;;1.93;1.20;;;9.50;99.90;;;10.37;100.00;97753.69;5001654;28;20466;-80
2024/03/16 02:42:13;;;;;;;3.73;1.30;;;9.50;99.90;;;10.36;100.00;97749.47;4998799;28;20527;-79
2024/03/16 02:44:41;;;;;;;2.70;1.47;;;9.50;99.90;;;10.33;100.00;97757.69;5011059;28;20503;-80
2024/03/16 02:47:11;;;;;;;3.57;1.50;;;9.50;99.90;;;10.32;100.00;97758.69;5013582;28;20449;-80
2024/03/16 02:49:40;;;;;;;2.43;1.30;;;9.50;99.90;;;10.32;100.00;97756.06;5026089;28;20579;-79
2024/03/16 02:52:10;;;;;;;6.30;1.97;;;9.50;99.90;;;10.30;100.00;97755.47;4999028;28;20463;-79
2024/03/16 02:54:39;;;;;;;2.53;1.57;;;9.70;99.90;;;10.34;100.00;97754.09;4996402;28;20508;-80
2024/03/16 02:57:08;;;;;;;3.53;1.53;;;9.60;99.90;;;10.35;100.00;97760.91;5000068;28;20747;-80
2024/03/16 02:59:37;;;;;;;2.63;1.40;;;9.60;99.90;;;10.39;100.00;97762.13;5010494;28;20524;-80
2024/03/16 03:02:05;;;;;;;7.93;1.63;;;9.70;99.90;;;10.42;100.00;97760.94;4994856;28;20542;-79
2024/03/16 03:04:35;;;;;;;2.20;1.60;;;9.70;99.90;;;10.43;100.00;97762.56;4998402;28;20462;-80
2024/03/16 03:07:04;;;;;;;2.00;1.50;;;9.60;99.90;;;10.41;100.00;97762.75;4999628;28;20465;-80
2024/03/16 03:09:34;;;;;;;4.23;1.77;;;9.70;99.90;;;10.42;100.00;97766.16;5001150;28;20465;-80
2024/03/16 03:12:04;;;;;;;12.93;1.20;;;9.80;99.90;;;10.44;100.00;97757.16;5010624;28;20469;-80
2024/03/16 03:14:33;;;;;;;6.53;1.57;;;9.70;99.90;;;10.49;100.00;97757.38;5013203;28;20470;-79
2024/03/16 03:17:01;;;;;;;1.30;1.20;;;9.80;99.90;;;10.49;100.00;97761.78;4996562;28;20499;-79
2024/03/16 03:19:30;;;;;;;1.40;1.00;;;9.70;99.90;;;10.50;100.00;97763.41;4997556;28;20527;-80
2024/03/16 03:21:59;;;;;;;1.73;1.17;;;9.70;99.90;;;10.50;100.00;97764.22;4997004;28;21197;-79
2024/03/16 03:24:27;;;;;;;1.83;1.20;;;9.80;99.90;;;10.49;100.00;97761.78;5000024;28;20475;-80
2024/03/16 03:26:56;;;;;;;6.30;1.27;;;9.70;99.90;;;10.48;100.00;97770.66;4994070;28;20484;-79
2024/03/16 03:29:25;;;;;;;14.53;2.60;;;9.70;99.90;;;10.46;100.00;97770.81;4996037;28;20475;-80
2024/03/16 03:31:56;;;;;;;2.33;1.50;;;9.80;99.90;;;10.46;100.00;97773.44;5007504;28;20853;-80
2024/03/16 03:34:25;;;;;;;3.23;1.40;;;9.80;99.90;;;10.49;100.00;97778.28;5010805;28;20467;-79
2024/03/16 03:36:54;;;;;;;4.83;1.47;;;9.80;99.90;;;10.52;100.00;97777.06;5009608;28;20514;-79
2024/03/16 03:39:24;;;;;;;3.67;1.13;;;9.80;99.90;;;10.55;100.00;97787.97;5011947;28;20458;-79
2024/03/16 03:41:54;;;;;;;17.93;8.50;;;9.90;99.90;;;10.56;100.00;97784.34;4993522;28;20525;-80
2024/03/16 03:44:24;;;;;;;3.73;1.57;;;9.90;99.90;;;10.57;100.00;97780.75;4995161;28;20956;-81
2024/03/16 03:46:54;;;;;;;2.30;1.10;;;9.90;99.90;;;10.58;100.00;97792.81;4993949;28;20511;-79
2024/03/16 03:49:32;;;;;;;12.10;5.63;;;9.90;99.90;;;10.49;100.00;97793.16;4996059;28;20547;-81
2024/03/16 03:52:02;;;;;;;6.33;1.50;;;9.90;99.90;;;10.48;100.00;97792.34;5002715;28;20469;-79
2024/03/16 03:54:34;;;;;;;2.70;1.30;;;10.00;99.90;;;10.50;100.00;97794.78;4997479;28;20590;-81
2024/03/16 03:57:04;;;;;;;2.70;1.30;;;9.90;99.90;;;10.53;100.00;97800.44;4994998;28;20503;-80
2024/03/16 03:59:35;;;;;;;1.80;1.20;;;9.90;99.90;;;10.57;100.00;97806.09;5009027;28;20473;-79
2024/03/16 04:02:04;;;;;;;2.20;1.13;;;9.90;99.90;;;10.60;100.00;97806.50;5010593;28;20470;-79
2024/03/16 04:04:33;;;;;;;3.13;1.20;;;9.90;99.90;;;10.60;100.00;97805.69;4999483;28;20494;-79
2024/03/16 04:07:01;;;;;;;7.20;1.60;;;9.80;99.90;;;10.61;100.00;97796.84;4993699;28;20538;-79
2024/03/16 04:09:30;;;;;;;5.87;1.77;;;9.90;99.90;;;10.57;100.00;97795.63;4996066;28;20922;-79
2024/03/16 04:11:58;;;;;;;3.93;1.37;;;10.00;99.90;;;10.52;100.00;97798.81;4996560;28;20915;-79
2024/03/16 04:14:27;;;;;;;1.23;1.13;;;9.90;99.90;;;10.57;100.00;97800.84;4983798;28;20504;-79
2024/03/16 04:16:56;;;;;;;4.33;1.60;;;9.90;99.90;;;10.60;100.00;97798.66;5008688;28;20525;-79
2024/03/16 04:19:23;;;;;;;1.90;1.27;;;9.80;99.90;;;10.60;100.00;97803.88;4982201;28;20767;-79
2024/03/16 04:21:52;;;;;;;7.00;1.43;;;9.80;99.90;;;10.58;100.00;97803.28;4996514;28;21031;-79
2024/03/16 04:24:20;;;;;;;9.00;1.37;;;9.80;99.90;;;10.62;100.00;97797.66;4994952;28;20468;-79
2024/03/16 04:26:49;;;;;;;2.83;1.37;;;9.80;99.90;;;10.58;100.00;97798.06;4995568;28;20478;-80
2024/03/16 04:29:18;;;;;;;1.57;1.37;;;9.80;99.90;;;10.63;100.00;97804.50;4997529;28;20860;-79
2024/03/16 04:31:46;;;;;;;1.63;1.10;;;9.90;99.90;;;10.57;100.00;97804.28;4997136;28;20527;-80
2024/03/16 04:34:15;;;;;;;2.90;1.33;;;9.90;99.90;;;10.54;100.00;97807.28;4997891;28;20882;-79
2024/03/16 04:36:43;;;;;;;2.83;1.60;;;9.80;99.90;;;10.56;100.00;97809.69;4997087;28;20529;-79
2024/03/16 04:39:12;;;;;;;4.07;1.43;;;9.80;99.90;;;10.54;100.00;97814.31;4997691;28;20528;-80
2024/03/16 04:41:41;;;;;;;4.17;1.53;;;9.70;99.90;;;10.56;100.00;97810.50;4995426;28;20494;-79
2024/03/16 04:44:09;;;;;;;3.63;2.37;;;9.80;99.90;;;10.51;100.00;97812.91;4992624;28;21650;-83
2024/03/16 04:46:37;;;;;;;12.43;6.60;;;9.70;99.90;;;10.51;100.00;97810.28;4990759;28;21037;-80
2024/03/16 04:49:07;;;;;;;19.30;1.33;;;9.70;99.90;;;10.50;100.00;97810.47;4997553;28;20475;-79
2024/03/16 04:51:38;;;;;;;2.07;1.27;;;9.70;99.90;;;10.52;100.00;97811.06;5011899;28;20472;-78
2024/03/16 04:54:07;;;;;;;3.03;1.50;;;9.90;99.90;;;10.51;100.00;97809.47;4996367;28;20622;-79
2024/03/16 04:56:35;;;;;;;2.83;1.10;;;9.90;99.90;;;10.50;100.00;97811.28;5009244;28;20994;-78
2024/03/16 04:59:04;;;;;;;2.43;1.30;;;9.90;99.90;;;10.51;100.00;97812.09;5011211;28;20552;-78
2024/03/16 05:01:33;;;;;;;2.20;1.80;;;9.80;99.90;;;10.50;100.00;97815.69;4995492;28;20465;-78
2024/03/16 05:04:02;;;;;;;2.50;1.27;;;9.90;99.90;;;10.52;100.00;97821.53;4997421;28;20886;-78
2024/03/16 05:06:32;;;;;;;1.53;1.20;;;9.80;99.90;;;10.52;100.00;97821.53;4987937;28;20478;-82
2024/03/16 05:09:04;;;;;;;6.97;2.90;;;9.80;99.90;;;10.52;100.00;97817.09;4994960;28;20467;-79
2024/03/16 05:11:33;;;;;;;1.87;1.67;;;9.80;99.90;;;10.55;100.00;97821.94;4991705;28;20826;-79
2024/03/16 05:14:02;;;;;;;5.23;1.70;;;9.80;99.90;;;10.57;100.00;97819.97;4999311;28;20910;-79
2024/03/16 05:16:31;;;;;;;1.73;1.60;;;9.80;99.90;;;10.55;100.00;97821.94;4978093;28;20456;-78
2024/03/16 05:19:01;;;;;;;8.17;4.67;;;9.90;99.90;;;10.58;100.00;97818.97;4992997;28;21008;-84
2024/03/16 05:21:30;;;;;;;3.87;2.13;;;9.80;99.90;;;10.56;100.00;97818.34;5006076;28;20564;-78
2024/03/16 05:23:59;;;;;;;1.93;1.73;;;9.90;99.90;;;10.56;100.00;97817.53;5007440;28;20544;-78
2024/03/16 05:26:30;;;;;;;2.30;1.50;;;9.80;99.90;;;10.57;100.00;97816.53;4998183;28;20544;-78
2024/03/16 05:28:59;;;;;;;1.47;1.30;;;9.90;99.90;;;10.57;100.00;97822.59;5013964;28;20907;-79
2024/03/16 05:31:28;;;;;;;1.40;1.30;;;9.90;99.90;;;10.60;100.00;97824.81;5000550;28;21001;-78
2024/03/16 05:33:56;;;;;;;3.07;1.30;;;9.80;99.90;;;10.50;100.00;97831.38;5001020;28;20461;-78
2024/03/16 05:36:25;;;;;;;3.30;2.07;;;9.70;99.90;;;10.52;100.00;97829.38;5004513;28;20461;-78
2024/03/16 05:38:53;;;;;;;1.83;1.73;;;9.70;99.90;;;10.57;100.00;97834.84;5016018;28;20500;-78
2024/03/16 05:41:22;;;;;;;3.67;1.30;;;9.70;99.90;;;10.54;100.00;97843.06;5004966;28;20489;-78
2024/03/16 05:43:53;;;;;;;1.47;1.30;;;9.70;99.90;;;10.49;100.00;97841.03;5017413;28;20941;-78
2024/03/16 05:46:22;;;;;;;1.33;1.20;;;9.70;99.90;;;10.51;100.00;97852.13;5022878;28;20490;-78
2024/03/16 05:48:50;;;;;;;1.40;1.30;;;9.70;99.90;;;10.54;100.00;97859.56;4987484;28;20476;-78
2024/03/16 05:51:19;;;;;;;4.63;1.90;;;9.70;99.90;;;10.52;100.00;97847.66;5001430;28;20484;-78
2024/03/16 05:53:48;;;;;;;1.67;1.40;;;9.70;99.90;;;10.58;100.00;97860.00;5006788;28;20494;-78
2024/03/16 05:56:17;;;;;;;2.23;1.27;;;9.80;99.90;;;10.57;100.00;97869.66;5000449;28;21009;-77
2024/03/16 05:58:46;;;;;;;2.67;1.80;;;9.70;99.90;;;10.58;100.00;97871.28;5016545;28;20607;-78
2024/03/16 06:01:15;;;;;;;2.00;1.60;;;9.70;99.90;;;10.53;100.00;97868.41;5000620;28;21630;-78
2024/03/16 06:03:45;;;;;;;1.50;1.40;;;9.70;99.90;;;10.58;100.00;97871.28;5004266;28;20967;-78
2024/03/16 06:06:13;;;;;;;8.23;2.20;;;9.70;99.90;;;10.62;100.00;97881.34;5016844;28;20466;-78
2024/03/16 06:08:42;;;;;;;1.83;1.60;;;9.80;99.90;;;10.61;100.00;97885.75;5003364;28;20484;-78
2024/03/16 06:11:10;;;;;;;5.60;1.50;;;9.80;99.90;;;10.60;100.00;97884.13;4992203;28;20470;-78
2024/03/16 06:13:39;;;;;;;2.73;1.60;;;9.80;99.90;;;10.57;100.00;97885.34;5004520;28;20486;-78
2024/03/16 06:16:08;;;;;;;1.77;1.40;;;9.80;99.90;;;10.59;100.00;97892.97;5002324;28;20461;-78
2024/03/16 06:18:39;;;;;;;2.50;1.40;;;9.70;99.90;;;10.52;100.00;97887.69;5002961;28;20488;-78
2024/03/16 06:21:10;;;;;;;3.60;1.20;;;9.70;99.90;;;10.56;100.00;97895.97;5003162;28;20464;-79
2024/03/16 06:23:39;;;;;;;2.23;1.57;;;9.70;99.90;;;10.54;100.00;97898.78;5006067;28;20512;-78
2024/03/16 06:26:16;;;;;;;1.53;1.03;;;9.70;99.90;;;10.48;100.00;97904.75;5005196;28;20467;-78
2024/03/16 06:28:47;;;;;;;2.07;1.37;;;9.60;99.90;;;10.46;100.00;97916.41;5019628;28;20488;-78
2024/03/16 06:31:24;;;;;;;2.63;1.30;;;9.60;99.90;;;10.50;100.00;97910.63;5006188;28;20479;-78
2024/03/16 06:33:53;;;;;;;4.50;1.30;;;9.70;99.90;;;10.49;100.00;97918.63;5004809;28;20960;-78
2024/03/16 06:36:21;;;;;;;4.33;1.40;;;9.60;99.90;;;10.50;100.00;97921.06;5002216;28;20492;-77
2024/03/16 06:38:50;;;;;;;4.30;1.50;;;9.70;99.90;;;10.56;100.00;97920.31;4989889;28;20535;-78
2024/03/16 06:41:19;;;;;;;2.50;1.40;;;9.70;99.90;;;10.58;100.00;97922.75;5004983;28;20470;-78
2024/03/16 06:43:47;;;;;;;4.00;1.97;;;9.80;99.90;;;10.64;100.00;97929.81;5004150;28;20469;-78
2024/03/16 06:46:18;;;;;;;6.47;2.07;;;9.80;99.90;;;10.69;100.00;97937.09;5003727;28;20470;-78
2024/03/16 06:48:47;;;;;;;12.23;2.27;;;9.90;99.90;;;10.67;100.00;97939.09;5001785;28;20454;-77
2024/03/16 06:51:17;;;;;;;2.83;1.23;;;10.00;99.90;;;10.67;100.00;97937.28;4985939;28;20958;-78
2024/03/16 06:53:47;;;;;;;1.13;1.00;;;10.00;99.90;;;10.69;100.00;97937.88;5021056;28;20542;-78
2024/03/16 06:56:15;;;;;;;6.03;1.47;;;10.00;99.90;;;10.72;100.00;97945.38;5014685;28;20474;-78
2024/03/16 06:58:44;;;;;;;3.03;1.10;;;10.10;99.90;;;10.69;100.00;97955.41;5015056;28;20517;-78
2024/03/16 07:01:14;;;;;;;5.70;1.07;;;10.00;99.90;;;10.75;100.00;97970.34;4974187;28;20466;-78
2024/03/16 07:03:43;;;;;;;1.20;0.93;;;10.00;99.90;;;10.72;100.00;97970.72;5004611;28;20472;-78
2024/03/16 07:06:12;;;;;;;1.30;1.00;;;10.00;99.90;;;10.77;100.00;97963.09;5016444;28;20594;-78
2024/03/16 07:08:40;;;;;;;1.60;0.90;;;10.10;99.90;;;10.83;100.00;97975.44;5000639;28;20485;-78
2024/03/16 07:11:09;;;;;;;1.23;1.00;;;10.10;99.90;;;10.88;100.00;97978.28;5006811;28;20448;-78
2024/03/16 07:13:38;;;;;;;4.43;0.80;;;10.10;99.90;;;10.91;100.00;97981.31;5005245;28;20884;-79
2024/03/16 07:16:11;;;;;;;2.13;0.90;;;10.20;99.90;;;10.90;100.00;97984.94;5003967;28;20461;-78
2024/03/16 07:18:40;;;;;;;2.60;1.07;;;10.20;99.90;;;10.90;100.00;97989.34;5016272;28;20697;-78
2024/03/16 07:21:09;;;;;;;2.83;1.47;;;10.20;99.90;;;10.95;100.00;97995.66;4990392;28;20914;-78
2024/03/16 07:23:39;;;;;;;1.47;1.00;;;10.30;99.90;;;10.90;100.00;98002.44;4998657;28;20476;-79
2024/03/16 07:26:09;;;;;;;1.30;0.90;;;10.20;99.90;;;10.89;100.00;98003.44;5004482;28;20465;-78
2024/03/16 07:28:41;;;;;;;1.00;0.90;;;10.20;99.90;;;10.89;100.00;98000.84;5003660;28;20467;-78
2024/03/16 07:31:12;;;;;;;1.60;0.93;;;10.20;99.90;;;10.94;100.00;98014.13;5017285;28;20521;-79
2024/03/16 07:33:41;;;;;;;1.00;0.90;;;10.30;99.90;;;11.00;100.00;98016.00;5016400;28;20886;-78
2024/03/16 07:36:10;;;;;;;2.43;1.30;;;10.40;99.90;;;10.94;100.00;98019.38;5004619;28;20475;-79
2024/03/16 07:38:38;;;;;;;2.40;0.80;;;10.30;99.90;;;10.94;100.00;98020.19;4999158;28;20490;-79
2024/03/16 07:41:08;;;;;;;4.10;0.90;;;10.20;99.90;;;11.00;100.00;98022.03;5016952;28;20470;-78
2024/03/16 07:43:37;;;;;;;1.00;0.90;;;10.30;99.90;;;11.07;100.00;98032.56;5001394;28;20459;-78
2024/03/16 07:46:06;;;;;;;1.53;1.00;;;10.30;99.90;;;11.09;100.00;98031.38;5022482;28;20457;-79
2024/03/16 07:48:35;;;;;;;1.43;1.10;;;10.40;99.90;;;11.12;100.00;98032.78;4988290;28;20470;-78
2024/03/16 07:51:04;;;;;;;1.60;1.00;;;10.50;99.90;;;11.11;100.00;98033.78;5004763;28;20463;-78
2024/03/16 07:53:33;;;;;;;0.93;0.83;;;10.50;99.90;;;11.17;100.00;98037.47;5012495;28;20490;-79
2024/03/16 07:56:04;;;;;;;1.40;0.80;;;10.50;99.90;;;11.15;100.00;98040.25;4999894;28;21605;-79
2024/03/16 07:58:33;;;;;;;2.40;1.17;;;10.60;99.90;;;11.18;100.00;98047.72;4999343;28;20493;-79
2024/03/16 08:01:01;;;;;;;1.37;0.90;;;10.60;99.90;;;11.19;100.00;98049.34;4999049;28;20490;-79
2024/03/16 08:03:30;;;;;;;1.57;1.07;;;10.50;99.90;;;11.24;100.00;98049.59;5013533;28;20474;-78
2024/03/16 08:06:03;;;;;;;2.40;0.90;;;10.60;99.90;;;11.27;100.00;98051.84;4999010;28;20464;-78
2024/03/16 08:08:32;;;;;;;2.80;0.90;;;10.70;99.90;;;11.32;100.00;98052.06;5013346;28;20466;-79
2024/03/16 08:11:01;;;;;;;1.20;1.07;;;10.60;99.90;;;11.36;100.00;98063.78;5005107;28;20517;-79
2024/03/16 08:13:29;;;;;;;1.20;0.90;;;10.70;99.90;;;11.40;100.00;98062.38;5003798;28;20466;-79
2024/03/16 08:15:59;;;;;;;1.20;1.10;;;10.80;99.90;;;11.36;100.00;98070.81;5001196;28;20474;-79
2024/03/16 08:18:27;;;;;;;1.00;0.90;;;10.60;99.90;;;11.27;100.00;98067.53;5001057;28;20466;-79
2024/03/16 08:20:58;;;;;;;1.10;1.00;;;10.50;99.90;;;11.38;100.00;98060.97;5002149;28;20954;-79
2024/03/16 08:23:27;;;;;;;2.87;1.00;;;10.70;99.90;;;11.45;100.00;98072.31;4987954;28;20471;-78
2024/03/16 08:25:55;;;;;;;2.53;1.10;;;10.70;99.90;;;11.47;100.00;98076.34;5016088;28;20886;-79
2024/03/16 08:28:24;;;;;;;1.00;0.90;;;10.80;99.90;;;11.53;100.00;98077.38;5004038;28;20468;-79
2024/03/16 08:30:52;;;;;;;1.00;0.90;;;10.80;99.90;;;11.55;100.00;98084.06;4986134;28;20474;-78
2024/03/16 08:33:21;;;;;;;1.17;1.07;;;10.90;99.90;;;11.49;100.00;98091.84;4985416;28;20549;-79
2024/03/16 08:35:50;;;;;;;1.63;0.90;;;10.80;99.90;;;11.42;100.00;98094.41;5000304;28;20479;-78
2024/03/16 08:38:19;;;;;;;1.57;0.80;;;10.80;99.90;;;11.47;100.00;98097.28;5003324;28;20977;-78
2024/03/16 08:40:48;;;;;;;1.10;0.80;;;10.90;99.90;;;11.49;100.00;98103.13;4999365;28;20521;-78
2024/03/16 08:43:16;;;;;;;1.10;0.93;;;10.80;99.90;;;11.52;100.00;98109.81;5014885;28;20670;-79
2024/03/16 08:45:45;;;;;;;1.50;0.80;;;10.80;99.90;;;11.55;100.00;98110.25;5019525;28;20476;-79
2024/03/16 08:48:14;;;;;;;1.07;0.97;;;10.80;99.90;;;11.60;100.00;98107.03;5000762;28;20452;-79
2024/03/16 08:50:42;;;;;;;0.80;0.80;;;10.90;99.90;;;11.59;100.00;98115.91;5000953;28;20762;-78
2024/03/16 08:53:11;;;;;;;2.70;0.83;;;10.90;99.90;;;11.61;100.00;98112.09;5014034;28;20501;-78
2024/03/16 08:55:40;;;;;;;0.97;0.83;;;11.00;99.90;;;11.65;100.00;98119.56;5000673;28;20966;-78
2024/03/16 08:58:09;;;;;;;3.83;0.90;;;11.10;99.90;;;11.68;100.00;98129.66;5013493;28;20466;-78
2024/03/16 09:00:37;;;;;;;0.80;0.80;;;11.10;99.90;;;11.73;100.00;98133.34;4988514;28;20504;-79
2024/03/16 09:03:06;;;;;;;1.23;1.00;;;11.10;99.90;;;11.74;100.00;98134.97;5014343;28;20510;-79
2024/03/16 09:05:34;;;;;;;2.73;1.03;;;11.10;99.90;;;11.78;100.00;98124.91;5014335;28;20470;-79
2024/03/16 09:08:03;;;;;;;1.43;0.90;;;11.20;99.90;;;11.82;100.00;98126.16;5014754;28;20459;-78
2024/03/16 09:10:32;;;;;;;1.33;1.00;;;11.20;99.90;;;11.87;100.00;98134.25;5019486;28;20498;-79
2024/03/16 09:13:00;;;;;;;1.40;1.10;;;11.10;99.90;;;11.90;100.00;98126.00;4992017;28;20493;-78
2024/03/16 09:15:29;;;;;;;1.00;0.90;;;11.20;99.90;;;11.97;100.00;98130.28;4992606;28;20470;-79
2024/03/16 09:17:57;;;;;;;0.90;0.80;;;11.20;99.90;;;11.96;100.00;98127.84;5016932;28;20478;-78
2024/03/16 09:20:26;;;;;;;1.20;0.83;;;11.30;99.90;;;11.95;100.00;98131.44;5007837;28;20580;-78
2024/03/16 09:22:56;;;;;;;1.20;0.90;;;11.30;99.90;;;11.87;100.00;98147.34;5019248;28;20464;-78
2024/03/16 09:25:25;;;;;;;2.23;0.73;;;11.20;99.90;;;11.87;100.00;98148.13;5005523;28;20471;-78
2024/03/16 09:27:53;;;;;;;0.70;0.70;;;11.20;99.90;;;11.96;100.00;98154.03;5002570;28;20539;-79
2024/03/16 09:30:22;;;;;;;2.43;1.07;;;11.30;99.90;;;12.04;100.00;98156.53;5000908;28;20474;-78
2024/03/16 09:32:51;;;;;;;0.90;0.70;;;11.40;99.90;;;12.06;100.00;98167.59;5017043;28;20463;-79
2024/03/16 09:35:20;;;;;;;1.00;0.80;;;11.50;99.90;;;12.05;100.00;98163.34;5001556;28;20476;-78
2024/03/16 09:37:48;;;;;;;0.90;0.80;;;11.50;99.90;;;12.02;100.00;98159.31;4991618;28;20468;-79
2024/03/16 09:40:17;;;;;;;0.90;0.80;;;11.50;99.90;;;11.96;100.00;98175.00;5020990;28;20495;-78
2024/03/16 09:42:46;;;;;;;6.23;0.80;;;11.40;99.90;;;12.00;100.00;98178.88;4988978;28;20500;-79
2024/03/16 09:45:17;;;;;;;1.83;0.90;;;11.50;99.90;;;12.05;100.00;98179.91;4991675;28;20481;-79
2024/03/16 09:47:44;;;;;;;0.73;0.63;;;11.50;99.90;;;12.09;100.00;98180.31;4987101;28;20489;-78
2024/03/16 09:50:13;;;;;;;1.50;0.77;;;11.60;99.90;;;12.23;100.00;98192.50;5005664;28;20474;-79
2024/03/16 09:52:40;;;;;;;0.80;0.70;;;11.60;99.90;;;12.35;100.00;98190.16;4986150;28;20967;-79
2024/03/16 09:55:10;;;;;;;1.63;1.20;;;11.70;99.90;;;12.36;100.00;98191.75;5002589;28;20822;-79
2024/03/16 09:57:38;;;;;;;0.90;0.80;;;11.70;99.90;;;12.38;100.00;98187.94;5019073;28;21442;-79
2024/03/16 10:00:08;;;;;;;4.63;1.00;;;11.70;99.90;;;12.37;100.00;98193.38;4975719;28;20540;-78
2024/03/16 10:02:36;;;;;;;1.70;1.00;;;11.70;99.90;;;12.43;100.00;98197.84;5002163;28;20469;-79
2024/03/16 10:05:04;;;;;;;0.90;0.80;;;11.80;99.90;;;12.42;100.00;98211.97;5007959;28;20544;-79
2024/03/16 10:07:32;;;;;;;0.87;0.80;;;11.80;99.90;;;12.45;100.00;98222.88;5002285;28;20470;-79
2024/03/16 10:10:00;;;;;;;0.90;0.80;;;11.80;99.90;;;12.52;100.00;98217.66;5006571;28;20474;-78
2024/03/16 10:12:27;;;;;;;1.30;1.20;;;11.90;99.90;;;12.61;100.00;98222.56;4988649;28;20523;-78
2024/03/16 10:15:15;;;;;;;1.07;0.93;;;11.90;99.90;;;12.72;100.00;98215.13;4991805;28;20480;-78
2024/03/16 10:17:43;;;;;;;2.20;0.93;;;12.10;99.90;;;12.78;100.00;98222.19;4991741;28;20467;-79
2024/03/16 10:20:15;;;;;;;1.03;0.80;;;12.10;99.90;;;12.68;100.00;98237.50;4989182;28;20493;-78
2024/03/16 10:22:46;;;;;;;2.47;1.60;;;12.10;99.90;;;12.54;100.00;98258.44;4990832;28;20886;-78